Wetterstation Vordersexau
Wetterdaten: Oktober 2012
Datum Temp. A. Feuchte A. Luftdruck Regen Wind Richtung Taupunkt Windchill Windben
01.10.2012 13,9 C 75 % 1016,7 hPa 0,0 l/m 0,0 km/h O-NO 9,4 C 13,9 C 0,0 km/h
02.10.2012 13,5 C 68 % 1017,2 hPa 0,0 l/m 2,7 km/h SO 7,1 C 13,2 C 1,5 km/h
03.10.2012 14,3 C 76 % 1015,2 hPa 0,4 l/m 4,5 km/h NO 10,0 C 13,7 C 2,5 km/h
04.10.2012 15,3 C 74 % 1012,7 hPa 0,4 l/m 12,3 km/h SW 10,6 C 13,0 C 6,8 km/h
05.10.2012 15,8 C 68 % 1015,2 hPa 0,0 l/m 7,5 km/h SO 9,7 C 14,8 C 4,2 km/h
06.10.2012 15,8 C 70 % 1013,9 hPa 0,7 l/m 4,8 km/h SO 10,1 C 15,2 C 2,7 km/h
07.10.2012 13,3 C 77 % 1015,9 hPa 8,2 l/m 1,9 km/h SO 9,2 C 13,2 C 1,1 km/h
08.10.2012 10,2 C 78 % 1017,1 hPa 0,4 l/m 0,8 km/h SO 6,4 C 10,1 C 0,5 km/h
09.10.2012 14,4 C 71 % 1010,4 hPa 16,4 l/m 1,3 km/h W-SW 9,0 C 14,2 C 0,8 km/h
10.10.2012 10,7 C 73 % 1011,9 hPa 3,9 l/m 0,4 km/h W 6,0 C 10,7 C 0,2 km/h
11.10.2012 12,8 C 72 % 1008,7 hPa 0,0 l/m 0,1 km/h W 7,9 C 12,8 C 0,0 km/h
12.10.2012 12,0 C 78 % 1008,9 hPa 5,3 l/m 1,6 km/h N-NO 8,2 C 11,7 C 0,9 km/h
13.10.2012 10,7 C 70 % 1011,4 hPa 0,0 l/m 0,6 km/h SO 5,3 C 10,7 C 0,3 km/h
14.10.2012 11,6 C 78 % 1001,4 hPa 6,1 l/m 1,8 km/h SO 7,9 C 11,5 C 1,0 km/h
15.10.2012 7,7 C 80 % 1006,3 hPa 0,7 l/m 7,7 km/h S-SW 4,5 C 5,5 C 4,3 km/h
16.10.2012 8,0 C 73 % 1010,8 hPa 0,4 l/m 0,3 km/h SO 3,2 C 8,0 C 0,2 km/h
17.10.2012 13,2 C 73 % 1010,0 hPa 0,0 l/m 0,5 km/h SO 8,1 C 13,2 C 0,3 km/h
18.10.2012 13,0 C 74 % 1010,5 hPa 0,0 l/m 0,0 km/h NO 8,2 C 13,0 C 0,0 km/h
19.10.2012 14,8 C 70 % 1012,2 hPa 0,0 l/m 0,1 km/h S-SO 9,0 C 14,8 C 0,1 km/h
20.10.2012 15,5 C 71 % 1015,3 hPa 0,0 l/m 0,7 km/h O-NO 10,0 C 15,5 C 0,4 km/h
21.10.2012 15,5 C 71 % 1014,4 hPa 0,0 l/m 0,0 km/h NO 9,9 C 15,5 C 0,0 km/h
22.10.2012 11,8 C 77 % 1017,9 hPa 0,0 l/m 0,2 km/h S-SW 7,8 C 11,8 C 0,1 km/h
23.10.2012 10,1 C 76 % 1020,1 hPa 0,4 l/m 1,0 km/h W-NW 5,9 C 9,9 C 0,5 km/h
24.10.2012 9,7 C 78 % 1017,4 hPa 0,0 l/m 1,2 km/h W-NW 5,9 C 9,7 C 0,7 km/h
25.10.2012 9,0 C 77 % 1012,9 hPa 0,0 l/m 0,2 km/h S-SO 5,1 C 9,0 C 0,1 km/h
26.10.2012 8,2 C 80 % 1004,7 hPa 0,7 l/m 0,1 km/h W-NW 4,9 C 8,2 C 0,0 km/h
27.10.2012 3,0 C 80 % 997,5 hPa 15,3 l/m 1,0 km/h NO -0,2 C 2,8 C 0,6 km/h
28.10.2012 1,8 C 84 % 1010,1 hPa 0,0 l/m 1,8 km/h NO -0,6 C 1,5 C 1,0 km/h
29.10.2012 2,1 C 79 % 1014,1 hPa 0,0 l/m 1,2 km/h S-SO -1,3 C 1,9 C 0,7 km/h
30.10.2012 5,4 C 73 % 1006,7 hPa 0,0 l/m 2,3 km/h SO 0,3 C 5,0 C 1,3 km/h
31.10.2012 5,1 C 77 % 999,1 hPa 0,0 l/m 0,0 km/h SO 1,0 C 5,1 C 0,0 km/h
Min-Datum 29.10.12 02.10.12 27.10.12 14 Tage 01.10.12 - 29.10.12 28.10.12 01.10.12
Min-Zeit 07:19 17:19 05:19 - 00:19 - 07:19 05:19 00:19
Minimum -5,7 C 41 % 990,6 hPa - 0,0 km/h - -7,7 C -7,1 C 0,0 km/h
Max-Datum 20.10.12 28.10.12 07.10.12 09.10.12 04.10.12 - 20.10.12 20.10.12 04.10.12
Max-Zeit 16:19 00:19 23:19 14:19 16:19 - 16:19 16:19 16:19
Maximum 29,5 C 87 % 1021,4 hPa 16,4 l/m 46,0 km/h
SW
- 17,0 C 29,5 C 25,6 km/h
SW
Durchschnitt 10,9 C 75 % 1011,5 hPa #59,1 l/m 1,9 km/h SO 6,4 C 10,6 C 1,1 km/h

Durchschnitt Minimum Temp.5,7 C
Durchschnitt Maximum Temp.18,4 C
www.sexauwetter.de